首页
METAR-TAF:

METAR-TAF

机场 :

Harriman-and-West Airport

北亚当斯, 马萨诸塞州, 美国

纬度: 42-41-50N, 经度: 073-10-13W, 海拔: 199米

当前天气观测

该预报发布于37分钟前的18:52 UTC
风速10节,风向西转西北,有时为24节阵风,在西转西南北转西北之间变化
温度 1°C
湿度 37%
气压 1022 hPa
能見度: 16.1公里
天空无云

METAR: KAQW 191852Z AUTO 29010G24KT 250V340 10SM CLR 01/M12 A3018 RMK AO2 PK WND 28034/1829 SLP225 T00061117

时间: 14:29 (19:29 UTC)


TAF: 丢失

超过4000个机场的气象观测和天气预报(METAR&TAF报告)。

可查询的气象台以黄色和红色小点在地图上表示。

将鼠标移到小点上方,可查看气象台名称。

然后点击查看天气观测和预报。

如需切换地图:点击带黑十字的绿色按钮放大地图;点击带横线的绿色按钮缩小地图;或者点击绿色箭头查看邻近地区的地图。


METAR-TAF: